Time;durP1;ratioP1;P1;durP2;ratioP2;P2;SDS_P1;SDS_P2;PMS_P1;PMS_P2;Temp;Humidity;BMP_temperature;BMP_pressure;BME280_temperature;BME280_humidity;BME280_pressure;Samples;Min_cycle;Max_cycle;Signal;HPM_P1;HPM_P2
2023/03/09 00:01:57;;;;;;;32.50;23.57;;;4.90;99.90;;;;;;5093700;28;20459;-59
2023/03/09 00:04:24;;;;;;;39.20;24.57;;;4.90;99.90;;;;;;5093616;28;20447;-60
2023/03/09 00:06:51;;;;;;;35.70;25.00;;;4.90;99.90;;;;;;5093561;28;20444;-59
2023/03/09 00:09:18;;;;;;;35.30;25.17;;;4.90;99.90;;;;;;5093173;28;20487;-59
2023/03/09 00:11:48;;;;;;;34.20;24.90;;;4.90;99.90;;;;;;5093391;28;20448;-59
2023/03/09 00:14:15;;;;;;;37.17;26.03;;;5.00;99.90;;;;;;5093558;28;20475;-59
2023/03/09 00:16:42;;;;;;;37.83;25.50;;;5.00;99.90;;;;;;5093352;28;20956;-59
2023/03/09 00:19:09;;;;;;;34.93;23.10;;;5.00;99.90;;;;;;5093482;28;20452;-59
2023/03/09 00:21:37;;;;;;;36.17;25.33;;;5.00;99.90;;;;;;5093208;28;20516;-58
2023/03/09 00:24:06;;;;;;;34.27;23.77;;;5.00;99.90;;;;;;5093151;28;20991;-58
2023/03/09 00:26:34;;;;;;;33.20;23.60;;;5.00;99.90;;;;;;5094226;28;20448;-58
2023/03/09 00:29:02;;;;;;;32.40;22.37;;;5.00;99.90;;;;;;5097346;28;20538;-58
2023/03/09 00:31:28;;;;;;;30.57;21.93;;;5.00;99.90;;;;;;5096013;28;20460;-58
2023/03/09 00:33:55;;;;;;;33.50;23.27;;;5.10;99.90;;;;;;5093366;28;20451;-58
2023/03/09 00:36:22;;;;;;;34.40;24.20;;;5.10;99.90;;;;;;5093350;28;20448;-57
2023/03/09 00:38:52;;;;;;;32.60;22.37;;;5.10;99.90;;;;;;5093294;28;20497;-57
2023/03/09 00:41:20;;;;;;;31.97;23.30;;;5.10;99.90;;;;;;5093234;28;20972;-57
2023/03/09 00:43:46;;;;;;;34.47;22.83;;;5.10;99.90;;;;;;5093220;28;20508;-57
2023/03/09 00:46:16;;;;;;;36.00;25.40;;;5.00;99.90;;;;;;5093181;28;20447;-57
2023/03/09 00:48:43;;;;;;;34.50;24.03;;;5.00;99.90;;;;;;5093070;28;20483;-57
2023/03/09 00:51:10;;;;;;;41.10;25.93;;;5.00;99.90;;;;;;5093182;28;20834;-57
2023/03/09 00:53:37;;;;;;;39.00;26.87;;;5.00;99.90;;;;;;5093097;28;20450;-57
2023/03/09 00:56:05;;;;;;;38.17;25.37;;;5.00;99.90;;;;;;5093159;28;20443;-58
2023/03/09 00:58:32;;;;;;;36.00;23.67;;;5.00;99.90;;;;;;5093062;28;20490;-58
2023/03/09 01:00:59;;;;;;;42.70;26.37;;;5.00;99.90;;;;;;5092702;28;20981;-58
2023/03/09 01:03:27;;;;;;;35.30;24.00;;;5.00;99.90;;;;;;5093042;28;20451;-58
2023/03/09 01:05:56;;;;;;;38.93;24.77;;;5.00;99.90;;;;;;5096735;28;20447;-58
2023/03/09 01:08:23;;;;;;;39.63;24.43;;;5.00;99.90;;;;;;5096784;28;20485;-58
2023/03/09 01:10:49;;;;;;;37.23;22.77;;;5.00;99.90;;;;;;5098069;28;20498;-57
2023/03/09 01:13:16;;;;;;;34.43;23.23;;;5.00;99.90;;;;;;5098291;28;20443;-57
2023/03/09 01:15:42;;;;;;;35.17;22.30;;;5.00;99.90;;;;;;5097360;28;20439;-57
2023/03/09 01:18:09;;;;;;;37.63;25.60;;;4.90;99.90;;;;;;5096698;28;20968;-57
2023/03/09 01:20:37;;;;;;;38.20;24.27;;;5.00;99.90;;;;;;5096972;28;20516;-57
2023/03/09 01:23:04;;;;;;;33.50;22.50;;;5.00;99.90;;;;;;5097144;28;20945;-57
2023/03/09 01:25:31;;;;;;;32.57;22.97;;;5.00;99.90;;;;;;5096955;28;20447;-57
2023/03/09 01:27:58;;;;;;;38.27;22.10;;;5.00;99.90;;;;;;5096603;28;20548;-57
2023/03/09 01:30:24;;;;;;;32.53;22.20;;;5.00;99.90;;;;;;5096835;28;20899;-57
2023/03/09 01:32:51;;;;;;;33.80;22.63;;;5.00;99.90;;;;;;5096718;28;20513;-57
2023/03/09 01:35:18;;;;;;;35.20;23.40;;;5.00;99.90;;;;;;5096246;28;20440;-57
2023/03/09 01:37:46;;;;;;;32.37;21.33;;;5.00;99.90;;;;;;5096566;28;20451;-57
2023/03/09 01:40:18;;;;;;;33.73;23.53;;;5.00;99.90;;;;;;5096377;28;20468;-57
2023/03/09 01:42:45;;;;;;;34.33;23.23;;;5.00;99.90;;;;;;5096587;28;20810;-57
2023/03/09 01:45:51;;;;;;;35.47;23.70;;;5.00;99.90;;;;;;5096188;28;20439;-57
2023/03/09 01:48:18;;;;;;;34.87;24.10;;;5.00;99.90;;;;;;5095824;28;20486;-57
2023/03/09 01:50:45;;;;;;;35.60;23.67;;;5.00;99.90;;;;;;5096339;28;20476;-57
2023/03/09 01:53:17;;;;;;;41.83;24.70;;;5.00;99.90;;;;;;5096287;28;20496;-57
2023/03/09 01:55:47;;;;;;;34.03;22.87;;;4.90;99.90;;;;;;5096051;28;20905;-57
2023/03/09 01:58:17;;;;;;;32.30;23.00;;;4.90;99.90;;;;;;5095587;28;20916;-57
2023/03/09 02:00:47;;;;;;;36.93;23.80;;;4.90;99.90;;;;;;5095816;28;20466;-57
2023/03/09 02:03:17;;;;;;;37.77;22.43;;;4.90;99.90;;;;;;5095787;28;20448;-57
2023/03/09 02:05:46;;;;;;;35.13;23.73;;;4.90;99.90;;;;;;5095512;28;20964;-57
2023/03/09 02:08:14;;;;;;;39.47;23.87;;;4.90;99.90;;;;;;5095601;28;20478;-57
2023/03/09 02:10:45;;;;;;;39.50;24.60;;;4.80;99.90;;;;;;5095308;28;20476;-57
2023/03/09 02:13:15;;;;;;;37.40;24.40;;;4.80;99.90;;;;;;5095358;28;20862;-57
2023/03/09 02:15:42;;;;;;;42.60;25.43;;;4.80;99.90;;;;;;5095363;28;20440;-58
2023/03/09 02:18:09;;;;;;;39.73;24.50;;;4.80;99.90;;;;;;5095509;28;20505;-57
2023/03/09 02:20:43;;;;;;;40.70;26.13;;;4.80;99.90;;;;;;5095601;28;20493;-57
2023/03/09 02:23:18;;;;;;;37.77;24.43;;;4.70;99.90;;;;;;5095405;28;20444;-57
2023/03/09 02:25:52;;;;;;;41.50;23.90;;;4.70;99.90;;;;;;5095375;28;20450;-57
2023/03/09 02:28:20;;;;;;;38.63;25.13;;;4.70;99.90;;;;;;5095303;28;20475;-57
2023/03/09 02:30:49;;;;;;;40.13;23.00;;;4.70;99.90;;;;;;5095238;28;20479;-57
2023/03/09 02:33:25;;;;;;;38.73;24.13;;;4.80;99.90;;;;;;5095190;28;20452;-58
2023/03/09 02:35:53;;;;;;;43.53;25.73;;;4.70;99.90;;;;;;5095231;28;20467;-57
2023/03/09 02:38:19;;;;;;;40.23;25.20;;;4.70;99.90;;;;;;5095091;28;20448;-57
2023/03/09 02:40:47;;;;;;;48.20;26.47;;;4.70;99.90;;;;;;5095094;28;20471;-57
2023/03/09 02:43:15;;;;;;;44.80;25.40;;;4.80;99.90;;;;;;5094712;28;20451;-57
2023/03/09 02:45:44;;;;;;;44.30;25.17;;;4.70;99.90;;;;;;5094650;28;20960;-57
2023/03/09 02:48:10;;;;;;;39.90;23.67;;;4.70;99.90;;;;;;5094495;28;21013;-57
2023/03/09 02:50:37;;;;;;;42.30;23.77;;;4.60;99.90;;;;;;5094805;28;20529;-57
2023/03/09 02:53:04;;;;;;;38.43;24.70;;;4.60;99.90;;;;;;5095397;28;20451;-57
2023/03/09 02:55:30;;;;;;;39.93;23.60;;;4.60;99.90;;;;;;5094915;28;20444;-57
2023/03/09 02:57:57;;;;;;;37.53;23.70;;;4.60;99.90;;;;;;5094789;28;20452;-57
2023/03/09 03:00:25;;;;;;;38.20;23.73;;;4.60;99.90;;;;;;5094609;28;20474;-57
2023/03/09 03:02:53;;;;;;;42.10;24.80;;;4.60;99.90;;;;;;5094637;28;20448;-57
2023/03/09 03:05:20;;;;;;;40.37;23.60;;;4.70;99.90;;;;;;5094528;28;20505;-57
2023/03/09 03:07:47;;;;;;;45.07;26.50;;;4.60;99.90;;;;;;5094503;28;20853;-57
2023/03/09 03:10:15;;;;;;;45.77;24.67;;;4.60;99.90;;;;;;5094068;28;20495;-57
2023/03/09 03:12:41;;;;;;;43.47;25.87;;;4.60;99.90;;;;;;5094474;28;20475;-57
2023/03/09 03:15:09;;;;;;;44.20;25.30;;;4.60;99.90;;;;;;5094350;28;20455;-57
2023/03/09 03:17:36;;;;;;;47.70;26.63;;;4.60;99.90;;;;;;5094034;28;20968;-57
2023/03/09 03:20:11;;;;;;;45.80;25.80;;;4.60;99.90;;;;;;5094314;28;20522;-57
2023/03/09 03:22:38;;;;;;;47.13;25.60;;;4.60;99.90;;;;;;5094355;28;20431;-57
2023/03/09 03:25:05;;;;;;;49.43;27.50;;;4.60;99.90;;;;;;5093934;28;20963;-57
2023/03/09 03:27:33;;;;;;;54.60;27.20;;;4.60;99.90;;;;;;5093529;28;20448;-57
2023/03/09 03:30:00;;;;;;;44.50;25.50;;;4.60;99.90;;;;;;5094043;28;20584;-57
2023/03/09 03:32:27;;;;;;;50.40;26.40;;;4.60;99.90;;;;;;5094074;28;20455;-57
2023/03/09 03:34:54;;;;;;;46.90;26.33;;;4.60;99.90;;;;;;5094065;28;20448;-57
2023/03/09 03:37:22;;;;;;;52.93;28.93;;;4.60;99.90;;;;;;5094008;28;20479;-57
2023/03/09 03:39:49;;;;;;;55.93;30.93;;;4.60;99.90;;;;;;5094433;28;20464;-57
2023/03/09 03:42:16;;;;;;;57.63;30.00;;;4.60;99.90;;;;;;5093615;28;20452;-57
2023/03/09 03:44:42;;;;;;;53.73;29.13;;;4.60;99.90;;;;;;5093905;28;20444;-57
2023/03/09 03:47:09;;;;;;;59.17;28.17;;;4.60;99.90;;;;;;5093519;28;20451;-57
2023/03/09 03:49:36;;;;;;;64.40;31.50;;;4.60;99.90;;;;;;5093715;28;20494;-57
2023/03/09 03:52:03;;;;;;;63.23;32.20;;;4.60;99.90;;;;;;5093752;28;20812;-57
2023/03/09 03:54:31;;;;;;;56.80;29.83;;;4.60;99.90;;;;;;5093704;28;20454;-57
2023/03/09 03:56:57;;;;;;;60.20;32.33;;;4.60;99.90;;;;;;5093634;28;20455;-57
2023/03/09 03:59:24;;;;;;;57.27;30.00;;;4.60;99.90;;;;;;5093623;28;20448;-57
2023/03/09 04:01:51;;;;;;;60.50;31.30;;;4.60;99.90;;;;;;5093473;28;20945;-57
2023/03/09 04:04:18;;;;;;;58.87;30.20;;;4.60;99.90;;;;;;5093886;28;20469;-57
2023/03/09 04:06:44;;;;;;;64.93;31.57;;;4.60;99.90;;;;;;5094545;28;20454;-57
2023/03/09 04:09:11;;;;;;;56.90;30.07;;;4.70;99.90;;;;;;5093957;28;21079;-57
2023/03/09 04:11:39;;;;;;;59.30;29.50;;;4.70;99.90;;;;;;5094511;28;20439;-57
2023/03/09 04:14:06;;;;;;;55.03;29.23;;;4.70;99.90;;;;;;5093801;28;20452;-57
2023/03/09 04:16:32;;;;;;;60.97;30.67;;;4.70;99.90;;;;;;5094407;28;20444;-57
2023/03/09 04:18:59;;;;;;;54.43;28.03;;;4.70;99.90;;;;;;5093510;28;20463;-57
2023/03/09 04:21:26;;;;;;;64.30;29.07;;;4.60;99.90;;;;;;5093488;28;20467;-57
2023/03/09 04:23:52;;;;;;;58.67;29.00;;;4.60;99.90;;;;;;5093450;28;20444;-57
2023/03/09 04:26:19;;;;;;;64.87;29.60;;;4.60;99.90;;;;;;5093566;28;20448;-57
2023/03/09 04:28:47;;;;;;;59.37;30.30;;;4.60;99.90;;;;;;5093013;28;20480;-57
2023/03/09 04:31:14;;;;;;;58.13;30.97;;;4.60;99.90;;;;;;5093468;28;20472;-57
2023/03/09 04:33:42;;;;;;;60.37;28.83;;;4.60;99.90;;;;;;5093061;28;20454;-57
2023/03/09 04:36:10;;;;;;;55.30;29.27;;;4.60;99.90;;;;;;5093345;28;20452;-57
2023/03/09 04:38:36;;;;;;;54.10;28.23;;;4.60;99.90;;;;;;5094856;28;20443;-57
2023/03/09 04:41:03;;;;;;;53.90;27.83;;;4.60;99.90;;;;;;5097401;28;20540;-58
2023/03/09 04:43:30;;;;;;;53.90;29.00;;;4.60;99.90;;;;;;5097294;28;20474;-57
2023/03/09 04:45:58;;;;;;;53.43;29.07;;;4.60;99.90;;;;;;5097360;28;20443;-57
2023/03/09 04:48:25;;;;;;;50.97;27.43;;;4.60;99.90;;;;;;5097348;28;20455;-57
2023/03/09 04:50:52;;;;;;;48.50;26.30;;;4.50;99.90;;;;;;5096707;28;20992;-57
2023/03/09 04:53:18;;;;;;;51.27;27.80;;;4.50;99.90;;;;;;5096862;28;20972;-57
2023/03/09 04:55:45;;;;;;;52.10;26.60;;;4.60;99.90;;;;;;5097165;28;20451;-58
2023/03/09 04:58:12;;;;;;;53.60;28.20;;;4.60;99.90;;;;;;5097030;28;20501;-58
2023/03/09 05:00:39;;;;;;;52.47;28.03;;;4.50;99.90;;;;;;5096975;28;20463;-57
2023/03/09 05:03:07;;;;;;;55.97;29.10;;;4.60;99.90;;;;;;5096614;28;20443;-57
2023/03/09 05:05:33;;;;;;;53.83;27.33;;;4.60;99.90;;;;;;5096974;28;20444;-57
2023/03/09 05:08:00;;;;;;;49.87;26.97;;;4.60;99.90;;;;;;5096869;28;20455;-57
2023/03/09 05:10:27;;;;;;;42.23;26.40;;;4.60;99.90;;;;;;5096379;28;20491;-57
2023/03/09 05:12:53;;;;;;;54.70;28.90;;;4.60;99.90;;;;;;5096709;28;20452;-57
2023/03/09 05:15:20;;;;;;;52.07;28.87;;;4.60;99.90;;;;;;5096446;28;20455;-57
2023/03/09 05:17:47;;;;;;;51.83;28.27;;;4.60;99.90;;;;;;5096720;28;20793;-57
2023/03/09 05:20:16;;;;;;;51.33;28.83;;;4.60;99.90;;;;;;5096618;28;20460;-57
2023/03/09 05:22:43;;;;;;;50.50;28.47;;;4.60;99.90;;;;;;5096287;28;20496;-57
2023/03/09 05:25:10;;;;;;;50.00;28.37;;;4.70;99.90;;;;;;5096268;28;20798;-57
2023/03/09 05:27:37;;;;;;;44.57;25.70;;;4.70;99.90;;;;;;5096170;28;20448;-57
2023/03/09 05:30:05;;;;;;;53.47;29.47;;;4.70;99.90;;;;;;5096644;28;20479;-57
2023/03/09 05:32:31;;;;;;;52.30;27.03;;;4.70;99.90;;;;;;5096451;28;20450;-57
2023/03/09 05:34:58;;;;;;;50.57;27.70;;;4.70;99.90;;;;;;5095979;28;20949;-58
2023/03/09 05:37:26;;;;;;;52.63;29.13;;;4.80;99.90;;;;;;5096341;28;20497;-57
2023/03/09 05:39:53;;;;;;;55.87;31.30;;;4.80;99.90;;;;;;5096280;28;20516;-58
2023/03/09 05:42:19;;;;;;;59.50;34.80;;;4.80;99.90;;;;;;5096223;28;20448;-58
2023/03/09 05:44:46;;;;;;;67.87;39.90;;;4.80;99.90;;;;;;5095830;28;20861;-58
2023/03/09 05:47:13;;;;;;;69.40;39.30;;;4.80;99.90;;;;;;5096057;28;20447;-57
2023/03/09 05:49:40;;;;;;;53.80;30.70;;;4.80;99.90;;;;;;5094924;28;20992;-57
2023/03/09 05:52:06;;;;;;;55.77;29.67;;;4.80;99.90;;;;;;5095709;28;20945;-56
2023/03/09 05:54:35;;;;;;;52.20;28.60;;;4.90;99.90;;;;;;5095902;28;20454;-57
2023/03/09 05:57:01;;;;;;;54.90;27.50;;;4.90;99.90;;;;;;5095564;28;20944;-57
2023/03/09 05:59:28;;;;;;;51.83;28.03;;;4.90;99.90;;;;;;5095776;28;20448;-57
2023/03/09 06:01:55;;;;;;;48.27;26.90;;;4.90;99.90;;;;;;5095686;28;20454;-58
2023/03/09 06:04:21;;;;;;;47.97;26.23;;;4.90;99.90;;;;;;5095802;28;20447;-57
2023/03/09 06:06:48;;;;;;;48.70;26.40;;;4.90;99.90;;;;;;5095712;28;20444;-57
2023/03/09 06:09:15;;;;;;;42.40;25.00;;;4.90;99.90;;;;;;5095302;28;20495;-57
2023/03/09 06:11:43;;;;;;;42.80;26.00;;;4.90;99.90;;;;;;5095709;28;20436;-57
2023/03/09 06:14:10;;;;;;;42.53;24.47;;;4.90;99.90;;;;;;5095588;28;20833;-57
2023/03/09 06:16:36;;;;;;;43.67;25.90;;;4.90;99.90;;;;;;5095419;28;20447;-57
2023/03/09 06:19:04;;;;;;;45.77;25.17;;;4.90;99.90;;;;;;5095449;28;20448;-57
2023/03/09 06:21:31;;;;;;;48.97;24.83;;;4.90;99.90;;;;;;5095309;28;20503;-57
2023/03/09 06:23:58;;;;;;;49.60;26.13;;;5.00;99.90;;;;;;5095879;28;20550;-57
2023/03/09 06:26:25;;;;;;;46.47;25.10;;;5.00;99.90;;;;;;5095381;28;20440;-57
2023/03/09 06:28:54;;;;;;;46.97;25.17;;;5.00;99.90;;;;;;5095295;28;20451;-57
2023/03/09 06:31:21;;;;;;;51.40;26.53;;;5.00;99.90;;;;;;5094813;28;20484;-56
2023/03/09 06:33:48;;;;;;;45.30;26.10;;;5.00;99.90;;;;;;5095167;28;20451;-57
2023/03/09 06:36:17;;;;;;;47.60;25.30;;;5.00;99.90;;;;;;5095145;28;20451;-57
2023/03/09 06:38:44;;;;;;;44.73;24.40;;;5.00;99.90;;;;;;5095137;28;20448;-57
2023/03/09 06:41:12;;;;;;;47.53;27.33;;;5.00;99.90;;;;;;5095039;28;20464;-57
2023/03/09 06:43:40;;;;;;;47.23;27.47;;;5.00;99.90;;;;;;5094642;28;20451;-57
2023/03/09 06:46:09;;;;;;;54.63;27.87;;;5.00;99.90;;;;;;5094634;28;20800;-57
2023/03/09 06:48:35;;;;;;;44.13;24.73;;;5.10;99.90;;;;;;5094890;28;20455;-56
2023/03/09 06:51:02;;;;;;;44.03;24.80;;;5.10;99.90;;;;;;5094709;28;20492;-56
2023/03/09 06:53:29;;;;;;;45.53;23.87;;;5.10;99.90;;;;;;5094581;28;20448;-56
2023/03/09 06:55:59;;;;;;;43.50;23.90;;;5.10;99.90;;;;;;5094602;28;20967;-57
2023/03/09 06:58:26;;;;;;;45.03;26.20;;;5.20;99.90;;;;;;5095895;28;20459;-57
2023/03/09 07:00:53;;;;;;;42.47;23.70;;;5.20;99.90;;;;;;5095529;28;20470;-57
2023/03/09 07:03:21;;;;;;;42.73;24.53;;;5.20;99.90;;;;;;5094314;28;20447;-57
2023/03/09 07:05:48;;;;;;;43.43;25.27;;;5.30;99.90;;;;;;5095141;28;20454;-57
2023/03/09 07:08:14;;;;;;;45.07;25.40;;;5.30;99.90;;;;;;5094762;28;20812;-57
2023/03/09 07:10:41;;;;;;;45.23;25.33;;;5.40;99.90;;;;;;5094067;28;20487;-57
2023/03/09 07:13:13;;;;;;;40.50;25.00;;;5.50;99.90;;;;;;5094540;28;20451;-57
2023/03/09 07:15:40;;;;;;;43.43;25.43;;;5.60;99.90;;;;;;5094514;28;20468;-57
2023/03/09 07:18:07;;;;;;;42.40;24.53;;;5.60;99.90;;;;;;5094404;28;20448;-56
2023/03/09 07:20:35;;;;;;;45.07;25.80;;;5.60;99.90;;;;;;5094328;28;20455;-56
2023/03/09 07:23:02;;;;;;;35.40;21.67;;;5.70;99.90;;;;;;5094274;28;20448;-56
2023/03/09 07:25:28;;;;;;;35.23;20.47;;;5.70;99.90;;;;;;5094226;28;20451;-56
2023/03/09 07:27:55;;;;;;;43.50;25.07;;;5.70;99.90;;;;;;5094199;28;20454;-56
2023/03/09 07:30:22;;;;;;;37.40;22.53;;;5.70;99.90;;;;;;5093753;28;20988;-56
2023/03/09 07:32:48;;;;;;;38.83;23.43;;;5.80;99.90;;;;;;5094013;28;20933;-56
2023/03/09 07:35:15;;;;;;;42.73;24.60;;;5.80;99.90;;;;;;5094113;28;20520;-56
2023/03/09 07:37:43;;;;;;;42.33;24.50;;;5.80;99.90;;;;;;5094000;28;20444;-56
2023/03/09 07:40:11;;;;;;;40.40;22.57;;;5.80;99.90;;;;;;5094010;28;20464;-56
2023/03/09 07:42:38;;;;;;;35.83;21.97;;;5.90;99.90;;;;;;5094009;28;20455;-56
2023/03/09 07:45:06;;;;;;;42.37;25.00;;;5.90;99.90;;;;;;5093904;28;20443;-56
2023/03/09 07:47:33;;;;;;;38.70;22.90;;;5.90;99.90;;;;;;5093827;28;20452;-56
2023/03/09 07:49:59;;;;;;;40.60;23.20;;;5.90;99.90;;;;;;5093714;28;20482;-55
2023/03/09 07:52:30;;;;;;;38.77;21.27;;;6.00;99.90;;;;;;5093792;28;20448;-54
2023/03/09 07:54:58;;;;;;;38.67;22.33;;;6.00;99.90;;;;;;5093801;28;20507;-55
2023/03/09 07:57:26;;;;;;;44.93;24.00;;;6.00;99.90;;;;;;5093472;28;20448;-54
2023/03/09 07:59:54;;;;;;;38.90;23.60;;;6.10;99.90;;;;;;5093495;28;20459;-55
2023/03/09 08:02:20;;;;;;;37.40;21.83;;;6.00;99.90;;;;;;5093689;28;20478;-54
2023/03/09 08:04:51;;;;;;;39.00;21.57;;;6.00;99.90;;;;;;5093623;28;20814;-55
2023/03/09 08:07:18;;;;;;;37.80;21.70;;;6.00;99.90;;;;;;5093606;28;20539;-54
2023/03/09 08:09:46;;;;;;;36.80;22.93;;;6.00;99.90;;;;;;5093320;28;20486;-55
2023/03/09 08:12:14;;;;;;;35.23;20.97;;;6.00;99.90;;;;;;5093616;28;20451;-55
2023/03/09 08:14:40;;;;;;;37.47;22.33;;;6.00;99.90;;;;;;5093151;28;20473;-55
2023/03/09 08:17:07;;;;;;;33.53;20.63;;;6.00;99.90;;;;;;5093515;28;20505;-55
2023/03/09 08:19:34;;;;;;;37.80;22.50;;;6.10;99.90;;;;;;5093405;28;20468;-56
2023/03/09 08:22:00;;;;;;;35.20;21.97;;;6.10;99.90;;;;;;5093083;28;20944;-55
2023/03/09 08:24:27;;;;;;;33.80;20.07;;;6.10;99.90;;;;;;5093076;28;20941;-54
2023/03/09 08:26:54;;;;;;;31.30;18.80;;;6.20;99.90;;;;;;5093487;28;20506;-55
2023/03/09 08:29:22;;;;;;;35.07;21.00;;;6.20;99.90;;;;;;5093412;28;20443;-55
2023/03/09 08:31:49;;;;;;;34.83;21.23;;;6.20;99.90;;;;;;5093224;28;20492;-55
2023/03/09 08:34:18;;;;;;;36.77;20.57;;;6.20;99.90;;;;;;5093373;28;20440;-54
2023/03/09 08:36:45;;;;;;;35.87;21.50;;;6.30;99.90;;;;;;5093072;28;21020;-55
2023/03/09 08:39:12;;;;;;;34.20;22.40;;;6.30;99.90;;;;;;5093271;28;20444;-55
2023/03/09 08:41:39;;;;;;;32.93;20.47;;;6.40;99.90;;;;;;5094141;28;20448;-56
2023/03/09 08:44:05;;;;;;;33.10;20.87;;;6.40;99.90;;;;;;5093731;28;20439;-56
2023/03/09 08:46:33;;;;;;;35.40;22.37;;;6.40;99.90;;;;;;5093314;28;20452;-56
2023/03/09 08:49:00;;;;;;;33.87;20.53;;;6.40;99.90;;;;;;5093278;28;20451;-56
2023/03/09 08:51:28;;;;;;;32.33;20.37;;;6.50;99.90;;;;;;5093056;28;20487;-57
2023/03/09 08:53:55;;;;;;;34.27;21.07;;;6.40;99.90;;;;;;5093213;28;20497;-57
2023/03/09 08:56:22;;;;;;;32.13;19.90;;;6.40;99.90;;;;;;5093471;28;20448;-57
2023/03/09 08:58:49;;;;;;;34.40;19.23;;;6.50;99.90;;;;;;5093307;28;20535;-56
2023/03/09 09:01:15;;;;;;;35.77;21.90;;;6.50;99.90;;;;;;5093083;28;20468;-57
2023/03/09 09:03:44;;;;;;;34.70;21.63;;;6.40;99.90;;;;;;5093088;28;20487;-57
2023/03/09 09:06:13;;;;;;;33.23;20.20;;;6.40;99.90;;;;;;5092713;28;20973;-57
2023/03/09 09:08:40;;;;;;;37.63;21.40;;;6.30;99.90;;;;;;5093002;28;20456;-57
2023/03/09 09:11:07;;;;;;;37.50;21.83;;;6.30;99.90;;;;;;5092559;28;20488;-57
2023/03/09 09:13:34;;;;;;;32.67;22.23;;;6.30;99.90;;;;;;5093116;28;20444;-56
2023/03/09 09:16:01;;;;;;;33.30;21.47;;;6.30;99.90;;;;;;5093143;28;20448;-56
2023/03/09 09:18:28;;;;;;;31.83;18.63;;;6.30;99.90;;;;;;5093087;28;20455;-56
2023/03/09 09:20:56;;;;;;;32.10;19.70;;;6.30;99.90;;;;;;5092841;28;20462;-56
2023/03/09 09:23:23;;;;;;;34.87;19.43;;;6.20;99.90;;;;;;5092544;28;20941;-56
2023/03/09 09:25:56;;;;;;;32.40;18.13;;;6.20;99.90;;;;;;5094376;28;20937;-56
2023/03/09 09:28:22;;;;;;;32.33;18.93;;;6.20;99.90;;;;;;5096593;28;20511;-56
2023/03/09 09:30:54;;;;;;;33.03;20.00;;;6.20;99.90;;;;;;5095958;28;20984;-56
2023/03/09 09:33:21;;;;;;;26.50;18.33;;;6.20;99.90;;;;;;5096455;28;20569;-56
2023/03/09 09:35:57;;;;;;;27.10;17.57;;;6.30;99.90;;;;;;5096356;28;20457;-57
2023/03/09 09:38:25;;;;;;;33.63;19.30;;;6.50;99.90;;;;;;5096338;28;20439;-57
2023/03/09 09:40:52;;;;;;;27.47;18.17;;;6.70;99.90;;;;;;5096157;28;20517;-57
2023/03/09 09:43:20;;;;;;;27.73;17.90;;;6.80;99.90;;;;;;5096165;28;20459;-57
2023/03/09 09:45:48;;;;;;;25.33;17.77;;;6.90;99.90;;;;;;5096177;28;20444;-57
2023/03/09 09:48:18;;;;;;;26.97;17.33;;;7.00;99.90;;;;;;5096147;28;20444;-57
2023/03/09 09:50:58;;;;;;;28.97;17.73;;;6.90;99.90;;;;;;5095986;28;20487;-58
2023/03/09 09:53:35;;;;;;;26.87;17.93;;;7.00;99.90;;;;;;5096148;28;20428;-58
2023/03/09 09:56:02;;;;;;;29.20;19.23;;;7.10;99.90;;;;;;5096134;28;20428;-58
2023/03/09 09:58:36;;;;;;;29.67;17.70;;;7.10;99.90;;;;;;5097768;28;20447;-58
2023/03/09 10:01:07;;;;;;;28.40;18.60;;;7.20;99.90;;;;;;5097281;28;20471;-58
2023/03/09 10:03:36;;;;;;;29.00;19.17;;;7.20;99.90;;;;;;5097035;28;20428;-58
2023/03/09 10:06:09;;;;;;;29.37;18.27;;;7.30;99.90;;;;;;5096706;28;20447;-58
2023/03/09 10:08:42;;;;;;;30.80;18.77;;;7.30;99.90;;;;;;5096770;28;20451;-58
2023/03/09 10:11:16;;;;;;;34.27;21.77;;;7.40;99.90;;;;;;5096253;28;20487;-58
2023/03/09 10:13:47;;;;;;;30.40;19.23;;;7.40;99.90;;;;;;5096382;28;20442;-58
2023/03/09 10:16:17;;;;;;;32.47;20.10;;;7.30;99.90;;;;;;5096458;28;20876;-58
2023/03/09 10:18:49;;;;;;;35.53;20.63;;;7.30;99.90;;;;;;5096231;28;20444;-58
2023/03/09 10:21:21;;;;;;;28.97;19.10;;;7.30;99.90;;;;;;5096295;28;20492;-58
2023/03/09 10:23:50;;;;;;;30.30;19.40;;;7.40;99.90;;;;;;5096255;28;20436;-58
2023/03/09 10:26:37;;;;;;;27.40;19.10;;;7.40;99.90;;;;;;5095875;28;20448;-58
2023/03/09 10:29:13;;;;;;;33.77;20.73;;;7.50;99.90;;;;;;5095641;28;20447;-58
2023/03/09 10:31:47;;;;;;;28.80;19.50;;;7.60;99.90;;;;;;5095237;28;20825;-58
2023/03/09 10:34:17;;;;;;;28.43;18.63;;;7.70;99.90;;;;;;5095837;28;20444;-58
2023/03/09 10:36:55;;;;;;;31.60;20.00;;;7.80;99.90;;;;;;5095439;28;20481;-58
2023/03/09 10:39:24;;;;;;;31.07;19.40;;;7.90;99.90;;;;;;5095166;28;20432;-58
2023/03/09 10:41:52;;;;;;;28.73;19.43;;;8.00;99.90;;;;;;5095299;28;20534;-57
2023/03/09 10:44:20;;;;;;;28.30;18.43;;;8.10;99.90;;;;;;5096222;28;20448;-58
2023/03/09 10:46:59;;;;;;;30.10;18.20;;;8.20;99.90;;;;;;5099029;28;20479;-58
2023/03/09 10:49:26;;;;;;;24.40;17.43;;;8.10;99.90;;;;;;5099269;28;20455;-58
2023/03/09 10:52:00;;;;;;;26.73;18.10;;;8.20;99.90;;;;;;5097012;28;20582;-57
2023/03/09 10:54:33;;;;;;;26.07;17.70;;;8.20;99.90;;;;;;5094687;28;20904;-57
2023/03/09 10:57:00;;;;;;;29.17;19.77;;;8.30;99.90;;;;;;5094623;28;20932;-57
2023/03/09 10:59:28;;;;;;;29.60;19.00;;;8.30;99.90;;;;;;5094816;28;20444;-58
2023/03/09 11:01:58;;;;;;;27.63;18.77;;;8.40;99.90;;;;;;5094790;28;20476;-58
2023/03/09 11:04:37;;;;;;;27.20;18.53;;;8.40;99.90;;;;;;5094399;28;20905;-58
2023/03/09 11:07:06;;;;;;;24.47;18.13;;;8.40;99.90;;;;;;5094704;28;20452;-58
2023/03/09 11:09:37;;;;;;;27.43;19.37;;;8.50;99.90;;;;;;5094415;28;20543;-58
2023/03/09 11:12:17;;;;;;;25.83;18.47;;;8.50;99.90;;;;;;5094405;28;20468;-58
2023/03/09 11:14:47;;;;;;;25.10;17.47;;;8.50;99.90;;;;;;5094209;28;20812;-58
2023/03/09 11:17:33;;;;;;;26.23;18.53;;;8.60;99.90;;;;;;5094299;28;20451;-58
2023/03/09 11:20:24;;;;;;;26.73;19.27;;;8.70;99.90;;;;;;5094411;28;20479;-58
2023/03/09 11:22:57;;;;;;;32.57;21.10;;;8.70;99.90;;;;;;5094291;28;20424;-58
2023/03/09 11:25:37;;;;;;;28.47;18.77;;;8.70;99.90;;;;;;5094266;28;20431;-58
2023/03/09 11:28:12;;;;;;;24.50;18.30;;;8.70;99.90;;;;;;5094293;28;20432;-58
2023/03/09 11:30:40;;;;;;;26.33;18.13;;;8.70;99.90;;;;;;5093790;28;20976;-58
2023/03/09 11:33:10;;;;;;;30.17;19.20;;;8.70;99.90;;;;;;5094079;28;20534;-58
2023/03/09 11:35:37;;;;;;;30.43;18.70;;;8.70;99.90;;;;;;5094054;28;20435;-58
2023/03/09 11:38:11;;;;;;;27.63;18.90;;;8.70;99.90;;;;;;5093957;28;20810;-58
2023/03/09 11:40:40;;;;;;;24.30;16.93;;;8.80;99.90;;;;;;5094061;28;20537;-58
2023/03/09 11:43:14;;;;;;;25.30;18.50;;;8.90;99.90;;;;;;5094074;28;20452;-58
2023/03/09 11:45:42;;;;;;;27.63;19.50;;;9.00;99.90;;;;;;5094045;28;20428;-58
2023/03/09 11:48:20;;;;;;;28.07;18.70;;;9.00;99.90;;;;;;5093261;28;20483;-58
2023/03/09 11:50:56;;;;;;;28.23;19.70;;;9.10;99.90;;;;;;5093801;28;20553;-58
2023/03/09 11:53:27;;;;;;;30.00;20.00;;;9.10;99.90;;;;;;5093840;28;20435;-58
2023/03/09 11:55:59;;;;;;;30.50;19.80;;;9.20;99.90;;;;;;5093438;28;20803;-58
2023/03/09 11:58:30;;;;;;;26.20;18.93;;;9.20;99.90;;;;;;5093760;28;20428;-58
2023/03/09 12:01:08;;;;;;;26.30;17.47;;;9.30;99.90;;;;;;5093697;28;20475;-58
2023/03/09 12:03:42;;;;;;;29.20;17.70;;;9.30;99.90;;;;;;5093689;28;20424;-58
2023/03/09 12:06:26;;;;;;;31.30;22.00;;;9.30;99.90;;;;;;5093615;28;20428;-58
2023/03/09 12:08:56;;;;;;;28.70;18.60;;;9.40;99.90;;;;;;5093373;28;20439;-58
2023/03/09 12:11:28;;;;;;;25.17;18.30;;;9.30;99.90;;;;;;5093404;28;20503;-58
2023/03/09 12:13:58;;;;;;;23.87;17.13;;;9.40;99.90;;;;;;5093558;28;20483;-58
2023/03/09 12:16:28;;;;;;;29.77;19.70;;;9.30;99.90;;;;;;5093273;28;20902;-58
2023/03/09 12:19:02;;;;;;;26.90;18.73;;;9.30;99.90;;;;;;5093432;28;20443;-57
2023/03/09 12:21:31;;;;;;;28.07;19.10;;;9.30;99.90;;;;;;5093479;28;20459;-57
2023/03/09 12:23:58;;;;;;;29.83;20.93;;;9.20;99.90;;;;;;5093407;28;20451;-57
2023/03/09 12:26:32;;;;;;;38.63;22.17;;;9.20;99.90;;;;;;5093129;28;20825;-57
2023/03/09 12:29:16;;;;;;;33.37;20.53;;;9.30;99.90;;;;;;5093094;28;20925;-57
2023/03/09 12:31:43;;;;;;;31.77;20.23;;;9.30;99.90;;;;;;5091149;28;20483;-57
2023/03/09 12:34:28;;;;;;;26.17;17.63;;;9.30;99.90;;;;;;5093352;28;20450;-57
2023/03/09 12:37:33;;;;;;;28.50;19.60;;;9.40;99.90;;;;;;5093021;28;20439;-57
2023/03/09 12:40:04;;;;;;;25.60;18.30;;;9.40;99.90;;;;;;5092826;28;20987;-57
2023/03/09 12:42:37;;;;;;;28.67;19.17;;;9.60;99.90;;;;;;5093708;28;20463;-57
2023/03/09 12:45:24;;;;;;;26.57;17.57;;;9.70;99.90;;;;;;5093030;28;20865;-58